الصفحة الرئيسية
METAR-TAF:

METAR-TAF

مطار :

مطار دالاس فورت ورث الدولي

دالاس / فورت وورث, تكساس, الولايات المتحدة

دائرة عرض: 32-53-49N, خط طول: 097-01-19W, ارتفاع: 183 متر

مراقبة الطقس الحالي

تاريخ ووقت الإصدار 38 دقيقة قبل الساعة 09:53UTC
ريح 3 عقدة من الشمال/الشمال الشرقي
درجة الحرارة 6°درجة مئوية
الرطوبة 75%
ضغط 1025 hPa
الرؤية: 16.1 كم
غيوم متفرقة على ارتفاع 14000 قدم

METAR: KDFW 220953Z 02003KT 10SM SCT140 06/02 A3028 RMK AO2 SLP251 T00560017

زمن: 04:31 (10:31 UTC)

توقعات

تاريخ ووقت الإصدار 1ساعة و 36 دقيقة قبل الساعة 08:55UTC
التوقعات صالحة من22 الساعة 09 UTC إلى 23 الساعة 12 UTC
ريح 5 عقدة من الجنوب الشرقي
الرؤية: 10 كم
غيوم قليلة على ارتفاع 12000 قدم
من 22 الساعة 1700 UTC
ريح 8 عقدة من الجنوب
الرؤية: 10 كم
غيوم متفرقة على ارتفاع 6000 قدم
من 23 الساعة 0300 UTC
ريح 11 عقدة من الجنوب
الرؤية: 10 كم
غيوم مفككة على ارتفاع 4000 قدم
من 23 الساعة 1000 UTC
ريح 12 عقدة من الجنوب
الرؤية: 10 كم
غيوم مفككة على ارتفاع 2000 قدم

TAF: KDFW 220855Z 2209/2312 13005KT P6SM FEW120 FM221700 17008KT P6SM SCT060 FM230300 17011KT P6SM BKN040 FM231000 17012KT P6SM BKN020

أرصاد الطقس والتوقعات من أكثر من 4000 مطار (تقارير الطقس للمطار METAR والتنبؤ بالطقس بالمطارTAF).

المحطات المتاحة هي النقط الصفراء والحمراء على الخريطة.

حرك المؤشر فوق النقطة لمعرفة اسم المحطة.

ثم انقر لمعرفة أرصاد وتوقعات الطقس.

لتغيير الخارطة: اضغط على الأزرار الخضراء مع رمز الصليب الأسود للتكبير. على الزر الأخضر مع شرطة للتصغير، أو على الأسهم الخضراء للخرائط المجاورة.


METAR-TAF: